Time;durP1;ratioP1;P1;durP2;ratioP2;P2;SDS_P1;SDS_P2;PMS_P1;PMS_P2;Temp;Humidity;BMP_temperature;BMP_pressure;BME280_temperature;BME280_humidity;BME280_pressure;Samples;Min_cycle;Max_cycle;Signal;HPM_P1;HPM_P2
2022/03/02 00:03:20;;;;;;;10.10;5.18;;;;;;;;;;20998483;28;20110;-60
2022/03/02 00:13:22;;;;;;;10.95;4.60;;;;;;;;;;20997268;28;20063;-60
2022/03/02 00:23:24;;;;;;;11.13;4.88;;;;;;;;;;20997733;28;20040;-58
2022/03/02 00:33:27;;;;;;;10.68;4.25;;;;;;;;;;20996345;28;20048;-59
2022/03/02 00:43:28;;;;;;;7.75;4.10;;;;;;;;;;20995593;28;20052;-59
2022/03/02 00:53:31;;;;;;;12.80;4.18;;;;;;;;;;20995966;28;20044;-59
2022/03/02 01:03:33;;;;;;;8.82;5.03;;;;;;;;;;20995874;28;20060;-59
2022/03/02 01:13:35;;;;;;;7.85;3.65;;;;;;;;;;20994518;28;20048;-59
2022/03/02 01:23:37;;;;;;;9.48;4.70;;;;;;;;;;20994551;28;20135;-59
2022/03/02 01:33:39;;;;;;;7.50;4.63;;;;;;;;;;20994259;28;20471;-59
2022/03/02 01:43:41;;;;;;;7.85;4.28;;;;;;;;;;20993996;28;20045;-59
2022/03/02 01:53:43;;;;;;;10.35;4.30;;;;;;;;;;20993029;28;20048;-59
2022/03/02 02:03:45;;;;;;;9.93;4.93;;;;;;;;;;21007427;28;20143;-59
2022/03/02 02:13:47;;;;;;;7.68;4.95;;;;;;;;;;21006943;28;20056;-60
2022/03/02 02:23:50;;;;;;;10.68;6.07;;;;;;;;;;21006425;28;20094;-58
2022/03/02 02:33:53;;;;;;;11.63;5.93;;;;;;;;;;21005650;28;20085;-59
2022/03/02 02:43:55;;;;;;;12.18;5.57;;;;;;;;;;21005830;28;20463;-62
2022/03/02 02:53:59;;;;;;;12.93;4.68;;;;;;;;;;21004128;28;20080;-60
2022/03/02 03:04:06;;;;;;;12.20;5.20;;;;;;;;;;21003602;28;20135;-67
2022/03/02 03:14:12;;;;;;;12.00;5.65;;;;;;;;;;21001632;28;20052;-62
2022/03/02 03:24:17;;;;;;;8.68;4.72;;;;;;;;;;21001945;28;20408;-61
2022/03/02 03:34:19;;;;;;;11.27;4.30;;;;;;;;;;21001388;28;20416;-60
2022/03/02 03:44:23;;;;;;;12.85;5.03;;;;;;;;;;20999776;28;20044;-61
2022/03/02 03:54:25;;;;;;;13.80;5.20;;;;;;;;;;20999638;28;20057;-62
2022/03/02 04:04:27;;;;;;;7.47;3.78;;;;;;;;;;20998980;28;20052;-60
2022/03/02 04:14:30;;;;;;;9.68;5.00;;;;;;;;;;20997658;28;20060;-60
2022/03/02 04:24:32;;;;;;;11.98;5.45;;;;;;;;;;20997624;28;20044;-60
2022/03/02 04:34:34;;;;;;;10.30;4.70;;;;;;;;;;20996264;28;20056;-61
2022/03/02 04:44:36;;;;;;;8.55;4.82;;;;;;;;;;20996394;28;20459;-60
2022/03/02 05:05:06;;;;;;;11.50;5.10;;;;;;;;;;20995042;28;20044;-60
2022/03/02 05:15:09;;;;;;;11.93;4.90;;;;;;;;;;20994786;28;20496;-60
2022/03/02 05:25:16;;;;;;;10.98;4.85;;;;;;;;;;20994281;28;20048;-61
2022/03/02 05:35:18;;;;;;;11.50;4.45;;;;;;;;;;21003019;28;20056;-60
2022/03/02 05:45:20;;;;;;;10.98;4.93;;;;;;;;;;21009227;28;20052;-62
2022/03/02 05:55:23;;;;;;;9.90;5.00;;;;;;;;;;21008309;28;20052;-58
2022/03/02 06:05:24;;;;;;;11.02;5.22;;;;;;;;;;21008034;28;20045;-62
2022/03/02 06:15:27;;;;;;;11.35;5.05;;;;;;;;;;21006780;28;20060;-59
2022/03/02 06:25:29;;;;;;;10.73;5.45;;;;;;;;;;21006022;28;20041;-61
2022/03/02 06:35:31;;;;;;;13.82;5.05;;;;;;;;;;21005807;28;20045;-60
2022/03/02 06:45:45;;;;;;;19.48;9.70;;;;;;;;;;21005548;28;20049;-60
2022/03/02 06:55:47;;;;;;;24.20;15.05;;;;;;;;;;21003999;28;20056;-62
2022/03/02 07:05:52;;;;;;;15.05;5.55;;;;;;;;;;21004542;28;20067;-60
2022/03/02 07:15:54;;;;;;;16.50;6.83;;;;;;;;;;21001408;28;20065;-60
2022/03/02 07:25:59;;;;;;;16.25;5.18;;;;;;;;;;21002225;28;20052;-59
2022/03/02 07:36:01;;;;;;;23.65;7.93;;;;;;;;;;20999825;28;20171;-61
2022/03/02 07:46:04;;;;;;;11.15;5.80;;;;;;;;;;20999750;28;20052;-61
2022/03/02 07:56:08;;;;;;;11.13;5.68;;;;;;;;;;20998206;28;20044;-60
2022/03/02 08:06:10;;;;;;;13.77;5.90;;;;;;;;;;20997523;28;20131;-59
2022/03/02 08:16:13;;;;;;;14.35;7.05;;;;;;;;;;20996698;28;20060;-60
2022/03/02 08:26:18;;;;;;;13.13;6.20;;;;;;;;;;20996809;28;20049;-61
2022/03/02 08:36:21;;;;;;;12.95;6.63;;;;;;;;;;20995945;28;20102;-60
2022/03/02 08:46:24;;;;;;;13.40;6.70;;;;;;;;;;20996032;28;20044;-59
2022/03/02 08:56:32;;;;;;;9.38;5.28;;;;;;;;;;20995507;28;20521;-61
2022/03/02 09:06:45;;;;;;;8.57;4.63;;;;;;;;;;21000265;28;20093;-58
2022/03/02 09:16:48;;;;;;;9.07;4.78;;;;;;;;;;21011302;28;20099;-60
2022/03/02 09:26:50;;;;;;;6.60;3.40;;;;;;;;;;21010425;28;20048;-56
2022/03/02 09:36:53;;;;;;;9.00;3.33;;;;;;;;;;20967088;28;20057;-60
2022/03/02 09:46:56;;;;;;;4.90;2.30;;;;;;;;;;20945247;28;20176;-60
2022/03/02 09:57:02;;;;;;;6.18;1.77;;;;;;;;;;20980641;28;20542;-57
2022/03/02 10:07:26;;;;;;;3.33;1.48;;;;;;;;;;20923679;28;20436;-57
2022/03/02 10:17:33;;;;;;;3.70;1.70;;;;;;;;;;20922780;28;20056;-58
2022/03/02 10:27:40;;;;;;;4.72;1.65;;;;;;;;;;20923031;28;20056;-59
2022/03/02 10:37:58;;;;;;;2.88;1.63;;;;;;;;;;20930352;28;20131;-63
2022/03/02 10:48:11;;;;;;;3.65;1.50;;;;;;;;;;20961324;28;20041;-55
2022/03/02 10:58:15;;;;;;;6.15;1.50;;;;;;;;;;20959620;28;20087;-66
2022/03/02 11:08:17;;;;;;;4.93;1.90;;;;;;;;;;20982056;28;20040;-63
2022/03/02 11:18:41;;;;;;;6.18;1.60;;;;;;;;;;20973012;28;20412;-58
2022/03/02 11:28:48;;;;;;;4.27;2.13;;;;;;;;;;20991346;28;20131;-62
2022/03/02 11:38:56;;;;;;;5.03;1.52;;;;;;;;;;20952167;28;20405;-62
2022/03/02 11:49:04;;;;;;;13.20;4.72;;;;;;;;;;20998157;28;20127;-67
2022/03/02 11:59:07;;;;;;;9.63;2.20;;;;;;;;;;20998324;28;20436;-58
2022/03/02 12:09:09;;;;;;;11.15;3.20;;;;;;;;;;20961152;28;20068;-62
2022/03/02 12:19:20;;;;;;;15.18;4.82;;;;;;;;;;20925608;28;20057;-64
2022/03/02 12:29:22;;;;;;;4.47;1.80;;;;;;;;;;20941140;28;20173;-58
2022/03/02 12:39:24;;;;;;;3.75;1.40;;;;;;;;;;20993328;28;20053;-57
2022/03/02 12:49:27;;;;;;;5.28;1.33;;;;;;;;;;20995476;28;20576;-57
2022/03/02 12:59:31;;;;;;;3.80;1.40;;;;;;;;;;20994528;28;20052;-57
2022/03/02 13:09:38;;;;;;;2.78;1.67;;;;;;;;;;20994577;28;20722;-58
2022/03/02 13:19:46;;;;;;;3.08;1.30;;;;;;;;;;20993879;28;20052;-58
2022/03/02 13:29:53;;;;;;;2.33;1.33;;;;;;;;;;20993824;28;20075;-59
2022/03/02 13:39:55;;;;;;;4.15;1.45;;;;;;;;;;20993109;28;20052;-58
2022/03/02 13:49:58;;;;;;;3.67;1.77;;;;;;;;;;20992600;28;20489;-59
2022/03/02 14:00:18;;;;;;;1.83;0.70;;;;;;;;;;21006793;28;20511;-57
2022/03/02 14:10:22;;;;;;;3.90;0.70;;;;;;;;;;21006441;28;20121;-58
2022/03/02 14:20:35;;;;;;;3.57;0.90;;;;;;;;;;21006009;28;20048;-58
2022/03/02 14:30:41;;;;;;;3.03;0.90;;;;;;;;;;21004866;28;20143;-58
2022/03/02 14:40:43;;;;;;;0.98;0.50;;;;;;;;;;21004379;28;20052;-58
2022/03/02 14:50:53;;;;;;;3.13;1.10;;;;;;;;;;21005212;28;20056;-57
2022/03/02 15:00:56;;;;;;;3.83;1.00;;;;;;;;;;21004361;28;20056;-58
2022/03/02 15:11:19;;;;;;;1.13;0.40;;;;;;;;;;21001730;28;20053;-58
2022/03/02 15:21:24;;;;;;;2.83;0.60;;;;;;;;;;21002449;28;20143;-57
2022/03/02 15:31:26;;;;;;;;;;;;;;;;;;21001899;28;20059;-57
2022/03/02 15:41:29;;;;;;;1.60;0.82;;;;;;;;;;21000559;28;19920;-58
2022/03/02 15:51:32;;;;;;;5.47;1.15;;;;;;;;;;20998724;28;20097;-58
2022/03/02 16:01:35;;;;;;;3.33;1.08;;;;;;;;;;20993348;28;20060;-58
2022/03/02 16:11:42;;;;;;;4.70;2.38;;;;;;;;;;20984319;28;20135;-58
2022/03/02 16:21:48;;;;;;;11.55;3.22;;;;;;;;;;20994746;28;20076;-62
2022/03/02 16:31:51;;;;;;;12.25;3.53;;;;;;;;;;20962044;28;20045;-58
2022/03/02 16:41:53;;;;;;;3.38;1.08;;;;;;;;;;20971011;28;20139;-61
2022/03/02 16:51:55;;;;;;;3.13;1.15;;;;;;;;;;20993751;28;20048;-62
2022/03/02 17:01:57;;;;;;;1.55;0.73;;;;;;;;;;20994895;28;20430;-60
2022/03/02 17:11:59;;;;;;;2.72;0.80;;;;;;;;;;20994195;28;20044;-63
2022/03/02 17:22:01;;;;;;;3.25;0.63;;;;;;;;;;20994220;28;20099;-64
2022/03/02 17:32:03;;;;;;;1.48;0.90;;;;;;;;;;21004906;28;20086;-60
2022/03/02 17:42:06;;;;;;;3.97;1.40;;;;;;;;;;21008885;28;20099;-56
2022/03/02 17:52:09;;;;;;;2.55;1.02;;;;;;;;;;21007654;28;20136;-56
2022/03/02 18:02:12;;;;;;;6.10;2.30;;;;;;;;;;21005386;28;20048;-57
2022/03/02 18:12:14;;;;;;;3.58;1.55;;;;;;;;;;21005848;28;20492;-55
2022/03/02 18:22:18;;;;;;;3.20;1.38;;;;;;;;;;21007717;28;20067;-62
2022/03/02 18:32:21;;;;;;;2.30;0.90;;;;;;;;;;21005747;28;20055;-60
2022/03/02 18:42:23;;;;;;;2.30;0.87;;;;;;;;;;21005301;28;20060;-61
2022/03/02 18:52:25;;;;;;;6.90;3.65;;;;;;;;;;21007990;28;20044;-58
2022/03/02 19:02:27;;;;;;;4.60;2.42;;;;;;;;;;21009953;28;20063;-60
2022/03/02 19:12:29;;;;;;;3.85;1.38;;;;;;;;;;21002888;28;20045;-61
2022/03/02 19:22:34;;;;;;;3.33;1.40;;;;;;;;;;21001849;28;20175;-62
2022/03/02 19:32:38;;;;;;;3.20;1.92;;;;;;;;;;21000369;28;20048;-64
2022/03/02 19:42:40;;;;;;;3.13;1.67;;;;;;;;;;21000500;28;20052;-63
2022/03/02 19:52:42;;;;;;;5.35;1.52;;;;;;;;;;20974890;28;20048;-55
2022/03/02 20:02:46;;;;;;;4.50;2.63;;;;;;;;;;20979315;28;20052;-59
2022/03/02 20:12:48;;;;;;;;;;;;;;;;;;20997620;28;20053;-57
2022/03/02 20:22:50;;;;;;;4.22;2.38;;;;;;;;;;20996135;28;19974;-64
2022/03/02 20:32:52;;;;;;;3.85;1.60;;;;;;;;;;20997204;28;20080;-68
2022/03/02 20:42:54;;;;;;;5.00;2.03;;;;;;;;;;20995945;28;20068;-66
2022/03/02 20:52:57;;;;;;;4.65;2.20;;;;;;;;;;20995279;28;20137;-57
2022/03/02 21:03:00;;;;;;;5.18;2.13;;;;;;;;;;20994426;28;20095;-59
2022/03/02 21:13:02;;;;;;;5.38;1.23;;;;;;;;;;20994929;28;20404;-72
2022/03/02 21:23:04;;;;;;;5.25;1.52;;;;;;;;;;20993959;28;20060;-66
2022/03/02 21:33:06;;;;;;;5.63;2.90;;;;;;;;;;20992985;28;20498;-70
2022/03/02 21:43:08;;;;;;;4.88;1.23;;;;;;;;;;20993316;28;20060;-71
2022/03/02 21:53:10;;;;;;;4.40;1.73;;;;;;;;;;20994322;28;20077;-67
2022/03/02 22:03:12;;;;;;;6.55;1.30;;;;;;;;;;20993017;28;20056;-69
2022/03/02 22:13:14;;;;;;;8.23;2.28;;;;;;;;;;20995704;28;20078;-69
2022/03/02 22:23:16;;;;;;;2.53;1.30;;;;;;;;;;21005946;28;20385;-66
2022/03/02 22:33:18;;;;;;;11.43;1.80;;;;;;;;;;21005853;28;20139;-59
2022/03/02 22:43:20;;;;;;;9.20;1.65;;;;;;;;;;21004607;28;20066;-59
2022/03/02 22:53:22;;;;;;;72.25;59.25;;;;;;;;;;21005110;28;20127;-60
2022/03/02 23:03:24;;;;;;;16.27;12.70;;;;;;;;;;21002762;28;20095;-61
2022/03/02 23:23:46;;;;;;;76.05;60.25;;;;;;;;;;21000216;28;20242;-61
2022/03/02 23:33:48;;;;;;;7.45;5.38;;;;;;;;;;20973023;28;20072;-59
2022/03/02 23:43:50;;;;;;;2.90;1.42;;;;;;;;;;20935276;28;20053;-59
2022/03/02 23:53:52;;;;;;;8.02;2.72;;;;;;;;;;20920273;28;20508;-59
